Cairo, Egypt
Current Conditions -  °F | °C
As of 2:00 PM on Tuesday 21 Oct 2014 (Local Time) from HECA Reporting Station
Clear Clear  
Wind Chill: 79°   Ceiling: Unl
Heat Index: 79°   Visibility: 6mi
Dew Point: 46°   Wind: 2mph
Humidity: 32%   Direction: 340°NNW
Pressure: 29.97"   Gusts: NA
Location:  30.06°N, 31.25°E
Report Text: HECA 211200Z 34002KT CAVOK 26/08 Q1015 NOSIG
Loading
Personal Weather Stations






























Interactive Weather Map
Tropical Storm Tracking
New forecast layout! Learn more

10-Day Weather Forecast

Advertisements
Track Severe Weather on mobile